Time;durP1;ratioP1;P1;durP2;ratioP2;P2;SDS_P1;SDS_P2;PMS_P1;PMS_P2;Temp;Humidity;BMP_temperature;BMP_pressure;BME280_temperature;BME280_humidity;BME280_pressure;Samples;Min_cycle;Max_cycle;Signal;HPM_P1;HPM_P2
2021/12/19 00:01:20;;;;;;;21.05;15.13;;;;;;;3.28;91.40;97200.23;1701672;82;21033;-82
2021/12/19 00:03:50;;;;;;;20.35;14.87;;;;;;;3.29;91.36;97203.63;1704202;83;21093;-83
2021/12/19 00:08:50;;;;;;;16.85;12.60;;;;;;;3.26;91.20;97198.27;1697858;83;21104;-82
2021/12/19 00:11:18;;;;;;;18.35;13.95;;;;;;;3.27;90.99;97192.66;1706283;83;20988;-82
2021/12/19 00:13:44;;;;;;;22.30;15.35;;;;;;;3.28;90.92;97191.25;1704474;83;21051;-83
2021/12/19 00:16:10;;;;;;;17.20;14.05;;;;;;;3.31;90.90;97188.91;1718031;81;20982;-83
2021/12/19 00:18:36;;;;;;;19.32;13.68;;;;;;;3.33;90.83;97187.04;1680084;83;21012;-83
2021/12/19 00:21:02;;;;;;;20.27;13.90;;;;;;;3.34;90.83;97183.53;1670470;83;21444;-83
2021/12/19 00:23:28;;;;;;;18.80;13.72;;;;;;;3.34;90.87;97184.00;1684147;83;21123;-83
2021/12/19 00:25:54;;;;;;;18.32;14.58;;;;;;;3.30;90.69;97189.37;1691177;83;21546;-83
2021/12/19 00:28:19;;;;;;;19.87;14.73;;;;;;;3.31;90.67;97193.58;1702901;83;21104;-83
2021/12/19 00:30:45;;;;;;;19.67;15.15;;;;;;;3.33;90.67;97186.22;1715644;82;21046;-83
2021/12/19 00:33:11;;;;;;;18.12;14.63;;;;;;;3.35;90.52;97186.45;1700602;83;21112;-83
2021/12/19 00:35:37;;;;;;;17.10;12.05;;;;;;;3.36;90.41;97183.41;1711634;82;21506;-83
2021/12/19 00:38:03;;;;;;;17.52;12.90;;;;;;;3.36;90.41;97173.14;1718000;82;21128;-83
2021/12/19 00:40:29;;;;;;;16.40;13.30;;;;;;;3.36;90.28;97189.84;1695944;82;21032;-83
2021/12/19 00:43:06;;;;;;;17.17;13.05;;;;;;;3.34;90.27;97189.14;1698060;83;21051;-83
2021/12/19 00:45:34;;;;;;;19.62;13.18;;;;;;;3.33;90.28;97178.52;1716787;82;21016;-83
2021/12/19 00:48:01;;;;;;;16.87;12.73;;;;;;;3.33;90.27;97172.91;1710045;83;20989;-83
2021/12/19 00:50:28;;;;;;;18.20;12.68;;;;;;;3.34;90.23;97167.30;1717167;82;21034;-83
2021/12/19 00:52:54;;;;;;;16.85;12.88;;;;;;;3.35;90.11;97176.64;1703802;83;21430;-83
2021/12/19 00:55:22;;;;;;;18.95;14.60;;;;;;;3.34;89.97;97183.53;1715103;82;21035;-83
2021/12/19 00:57:48;;;;;;;18.62;13.25;;;;;;;3.37;90.02;97173.02;1688779;81;21051;-83
2021/12/19 01:00:17;;;;;;;21.02;13.50;;;;;;;3.39;89.90;97171.61;1697070;82;21448;-83
2021/12/19 01:02:43;;;;;;;17.92;12.73;;;;;;;3.38;89.92;97166.13;1718616;81;20980;-83
2021/12/19 01:05:09;;;;;;;18.05;13.68;;;;;;;3.37;89.95;97165.78;1705501;83;21055;-83
2021/12/19 01:07:35;;;;;;;15.65;11.85;;;;;;;3.35;89.88;97159.95;1713320;83;21061;-82
2021/12/19 01:10:00;;;;;;;16.23;11.60;;;;;;;3.33;89.84;97165.20;1684125;83;21078;-83
2021/12/19 01:12:26;;;;;;;13.50;10.60;;;;;;;3.33;89.62;97161.35;1698708;83;21074;-83
2021/12/19 01:14:53;;;;;;;17.10;13.30;;;;;;;3.34;89.68;97160.88;1682023;83;21004;-82
2021/12/19 01:17:19;;;;;;;10.68;9.28;;;;;;;3.38;89.58;97161.80;1713819;83;21072;-83
2021/12/19 01:19:45;;;;;;;12.60;10.60;;;;;;;3.39;89.26;97158.30;1708084;82;21098;-83
2021/12/19 01:22:11;;;;;;;14.75;9.98;;;;;;;3.39;89.20;97144.64;1706381;83;21035;-83
2021/12/19 01:24:37;;;;;;;14.47;10.30;;;;;;;3.39;89.12;97133.89;1708833;82;21102;-83
2021/12/19 01:27:05;;;;;;;11.68;9.25;;;;;;;3.39;89.15;97131.80;1693336;82;21015;-83
2021/12/19 01:29:31;;;;;;;12.05;9.15;;;;;;;3.38;89.01;97118.14;1704920;83;21023;-83
2021/12/19 01:31:56;;;;;;;13.35;9.33;;;;;;;3.40;89.06;97120.58;1701745;82;21461;-83
2021/12/19 01:34:23;;;;;;;12.10;9.63;;;;;;;3.42;89.06;97118.27;1709280;83;21156;-83
2021/12/19 01:36:48;;;;;;;15.32;11.12;;;;;;;3.45;89.05;97111.60;1695225;82;21028;-83
2021/12/19 01:39:15;;;;;;;16.50;11.00;;;;;;;3.45;88.82;97105.64;1707063;82;21464;-83
2021/12/19 01:41:53;;;;;;;16.15;11.65;;;;;;;3.44;88.91;97092.45;1701747;83;21406;-83
2021/12/19 01:44:20;;;;;;;17.52;12.82;;;;;;;3.40;89.01;97096.17;1708981;81;21042;-83
2021/12/19 01:46:46;;;;;;;18.57;13.00;;;;;;;3.38;89.14;97094.20;1682109;83;21430;-83
2021/12/19 01:49:14;;;;;;;17.00;12.95;;;;;;;3.37;89.27;97092.56;1693182;84;21151;-83
2021/12/19 01:51:41;;;;;;;17.55;12.82;;;;;;;3.37;89.25;97089.53;1710588;82;21079;-82
2021/12/19 01:54:06;;;;;;;16.80;11.68;;;;;;;3.37;89.37;97074.12;1708834;81;21002;-83
2021/12/19 01:56:32;;;;;;;14.55;11.20;;;;;;;3.37;89.50;97072.83;1709293;81;21076;-83
2021/12/19 01:58:58;;;;;;;16.32;11.70;;;;;;;3.35;89.58;97063.62;1709813;83;21023;-83
2021/12/19 02:01:24;;;;;;;18.92;12.23;;;;;;;3.35;89.72;97062.33;1710663;82;21043;-83
2021/12/19 02:03:50;;;;;;;17.35;12.55;;;;;;;3.34;89.92;97051.72;1706874;82;21079;-83
2021/12/19 02:06:16;;;;;;;16.27;12.03;;;;;;;3.32;90.05;97040.28;1707740;83;21530;-83
2021/12/19 02:08:41;;;;;;;14.93;10.53;;;;;;;3.31;90.12;97038.65;1715362;82;21136;-83
2021/12/19 02:11:07;;;;;;;13.85;9.88;;;;;;;3.28;90.24;97033.76;1704729;82;21119;-82
2021/12/19 02:13:33;;;;;;;15.32;10.75;;;;;;;3.30;90.36;97031.41;1715763;82;21113;-83
2021/12/19 02:15:59;;;;;;;13.05;9.55;;;;;;;3.30;90.38;97035.27;1698438;83;21031;-83
2021/12/19 02:18:25;;;;;;;11.85;9.20;;;;;;;3.32;90.42;97031.28;1695560;83;21435;-83
2021/12/19 02:20:56;;;;;;;13.88;10.55;;;;;;;3.30;90.48;97029.31;1713645;82;21461;-83
2021/12/19 02:23:24;;;;;;;11.90;8.95;;;;;;;3.34;90.51;97026.84;1699901;83;21085;-83
2021/12/19 02:25:50;;;;;;;12.45;9.75;;;;;;;3.35;90.56;97020.77;1702280;81;21473;-83
2021/12/19 02:28:16;;;;;;;12.30;8.85;;;;;;;3.36;90.60;97019.83;1702341;82;21091;-83
2021/12/19 02:30:42;;;;;;;11.57;9.38;;;;;;;3.35;90.58;97014.81;1710692;83;21467;-83
2021/12/19 02:33:12;;;;;;;13.10;8.95;;;;;;;3.34;90.53;97008.86;1708961;82;21024;-82
2021/12/19 02:35:40;;;;;;;11.65;8.90;;;;;;;3.34;90.50;97009.33;1710721;81;21001;-83
2021/12/19 02:48:46;;;;;;;11.45;8.38;;;;;;;3.37;90.26;96989.81;1702991;81;21449;-83
2021/12/19 02:51:12;;;;;;;11.08;8.03;;;;;;;3.39;90.25;96997.74;1705098;82;21083;-83
2021/12/19 02:53:41;;;;;;;11.03;7.55;;;;;;;3.37;90.23;96986.78;1705091;82;21482;-83
2021/12/19 02:56:10;;;;;;;9.98;7.33;;;;;;;3.42;90.28;96978.73;1694108;81;21445;-83
2021/12/19 02:58:39;;;;;;;10.18;7.75;;;;;;;3.42;90.32;96985.96;1703014;82;21047;-83
2021/12/19 03:01:15;;;;;;;10.82;8.55;;;;;;;3.43;90.29;96975.22;1706637;82;21031;-83
2021/12/19 03:03:41;;;;;;;9.98;7.62;;;;;;;3.42;90.37;96961.56;1697510;82;21080;-82
2021/12/19 03:06:07;;;;;;;9.68;7.62;;;;;;;3.42;90.36;96955.14;1714004;82;21010;-83
2021/12/19 03:08:34;;;;;;;9.10;7.78;;;;;;;3.40;90.27;96943.33;1693203;82;21394;-82
2021/12/19 03:18:45;;;;;;;9.68;8.00;;;;;;;3.44;90.25;96930.60;1714344;81;21073;-83
2021/12/19 03:21:15;;;;;;;7.78;6.72;;;;;;;3.45;90.10;96916.81;1709959;83;21075;-83
2021/12/19 03:23:39;;;;;;;9.68;8.00;;;;;;;3.44;89.99;96913.91;1703311;83;20992;-84
2021/12/19 03:26:05;;;;;;;9.20;8.08;;;;;;;3.44;90.07;96916.00;1702652;81;21347;-83
2021/12/19 03:28:30;;;;;;;9.30;7.72;;;;;;;3.45;90.13;96910.39;1695567;82;21153;-83
2021/12/19 03:30:56;;;;;;;10.13;7.75;;;;;;;3.45;90.06;96912.97;1712195;82;21150;-83
2021/12/19 03:33:22;;;;;;;9.58;6.95;;;;;;;3.45;89.87;96897.08;1691421;82;20999;-83
2021/12/19 03:35:48;;;;;;;10.25;7.33;;;;;;;3.45;89.89;96898.36;1701517;82;21523;-82
2021/12/19 03:38:14;;;;;;;8.05;6.80;;;;;;;3.46;89.74;96883.77;1702648;82;21047;-83
2021/12/19 03:40:44;;;;;;;8.40;6.15;;;;;;;3.48;89.71;96878.03;1713420;82;21190;-83
2021/12/19 03:43:16;;;;;;;9.63;7.30;;;;;;;3.47;89.65;96864.37;1713887;81;20984;-83
2021/12/19 03:45:44;;;;;;;13.90;8.73;;;;;;;3.50;89.64;96853.02;1709542;82;21140;-83
2021/12/19 03:48:12;;;;;;;10.88;8.33;;;;;;;3.48;89.52;96839.48;1716965;82;21448;-83
2021/12/19 03:50:42;;;;;;;8.68;7.75;;;;;;;3.45;89.62;96841.84;1705624;81;21083;-83
2021/12/19 03:53:09;;;;;;;8.13;7.28;;;;;;;3.43;89.82;96827.03;1671260;84;21059;-83
2021/12/19 03:55:35;;;;;;;7.83;6.70;;;;;;;3.44;89.80;96827.38;1685906;82;20984;-83
2021/12/19 03:58:02;;;;;;;9.95;7.05;;;;;;;3.44;89.71;96811.96;1712313;82;21127;-83
2021/12/19 04:00:29;;;;;;;7.03;6.30;;;;;;;3.42;89.60;96804.04;1703329;83;21390;-83
2021/12/19 04:02:58;;;;;;;6.67;5.42;;;;;;;3.42;89.63;96807.42;1707225;82;21075;-83
2021/12/19 04:05:25;;;;;;;7.42;5.12;;;;;;;3.42;89.68;96798.43;1708000;81;21027;-83
2021/12/19 04:07:50;;;;;;;7.47;5.75;;;;;;;3.40;89.64;96790.02;1712609;81;21024;-82
2021/12/19 04:10:16;;;;;;;5.10;3.98;;;;;;;3.42;89.81;96789.44;1721164;82;21406;-83
2021/12/19 04:12:43;;;;;;;4.78;4.28;;;;;;;3.41;89.78;96792.11;1706775;83;21010;-83
2021/12/19 04:15:11;;;;;;;6.92;4.90;;;;;;;3.42;89.74;96783.48;1717768;81;21401;-83
2021/12/19 04:17:37;;;;;;;5.90;4.75;;;;;;;3.47;89.84;96781.34;1698342;83;21020;-83
2021/12/19 04:20:04;;;;;;;3.98;3.15;;;;;;;3.48;89.74;96777.83;1699544;83;21062;-83
2021/12/19 04:22:30;;;;;;;3.77;3.25;;;;;;;3.50;89.67;96776.75;1708134;82;21358;-83
2021/12/19 04:24:56;;;;;;;5.15;3.80;;;;;;;3.35;89.63;96733.55;1706308;83;20984;-83
2021/12/19 04:27:22;;;;;;;6.20;4.28;;;;;;;3.57;89.63;96761.16;1715343;83;21026;-82
2021/12/19 04:29:49;;;;;;;5.55;4.37;;;;;;;3.60;89.61;96750.64;1722414;82;20999;-83
2021/12/19 04:32:17;;;;;;;5.47;3.75;;;;;;;3.61;89.64;96738.61;1713169;81;21077;-83
2021/12/19 04:34:43;;;;;;;5.15;3.90;;;;;;;3.59;89.56;96737.45;1702110;82;21013;-83
2021/12/19 04:37:31;;;;;;;5.22;3.90;;;;;;;3.48;89.60;96718.27;1725200;82;21065;-83
2021/12/19 04:39:53;;;;;;;4.30;3.90;;;;;;;3.60;89.71;96729.27;1706890;82;21470;-83
2021/12/19 04:44:07;;;;;;;4.83;3.80;;;;;;;3.64;89.64;96734.96;1702767;81;21062;-83
2021/12/19 04:54:04;;;;;;;4.28;3.70;;;;;;;3.71;89.40;96722.73;1705743;83;21080;-84
2021/12/19 04:56:14;;;;;;;4.33;3.45;;;;;;;3.73;89.41;96720.84;1679741;83;21014;-84
2021/12/19 04:58:16;;;;;;;4.50;3.80;;;;;;;3.74;89.44;96704.95;1703517;82;21023;-83
2021/12/19 05:00:40;;;;;;;5.05;4.47;;;;;;;3.72;89.55;96701.22;1700173;83;20991;-84
2021/12/19 05:03:15;;;;;;;4.87;3.98;;;;;;;3.73;89.49;96701.56;1704383;81;22027;-84
2021/12/19 05:16:22;;;;;;;4.72;3.70;;;;;;;3.81;88.95;96713.77;1700879;83;21052;-84
2021/12/19 05:18:50;;;;;;;5.35;4.15;;;;;;;3.79;88.69;96708.77;1698732;83;21099;-84
2021/12/19 05:21:19;;;;;;;5.05;3.85;;;;;;;3.78;88.80;96708.91;1697140;83;21056;-84
2021/12/19 05:26:10;;;;;;;4.75;3.90;;;;;;;3.78;88.75;96702.00;1673026;84;21024;-84
2021/12/19 05:28:36;;;;;;;5.42;3.77;;;;;;;3.80;88.45;96699.30;1716649;82;20999;-83
2021/12/19 05:31:03;;;;;;;5.78;4.30;;;;;;;3.80;88.28;96695.44;1711994;83;21074;-84
2021/12/19 05:33:28;;;;;;;5.05;4.50;;;;;;;3.81;88.05;96690.64;1727529;81;20985;-84
2021/12/19 05:44:12;;;;;;;5.35;4.72;;;;;;;3.82;87.96;96692.27;1680905;84;21562;-83
2021/12/19 05:46:27;;;;;;;5.00;4.47;;;;;;;3.80;87.53;96683.41;1713362;82;21052;-84
2021/12/19 05:48:53;;;;;;;5.55;4.10;;;;;;;3.81;87.49;96685.03;1707008;83;21486;-84
2021/12/19 05:51:19;;;;;;;5.28;4.00;;;;;;;3.82;87.29;96680.70;1713573;82;21015;-84
2021/12/19 05:53:46;;;;;;;5.25;4.70;;;;;;;3.84;87.30;96679.62;1712178;81;21021;-84
2021/12/19 05:56:12;;;;;;;4.47;4.05;;;;;;;3.82;86.93;96676.37;1695778;83;21316;-84
2021/12/19 05:58:38;;;;;;;5.85;5.20;;;;;;;3.81;86.73;96669.60;1711286;81;20962;-84
2021/12/19 06:01:05;;;;;;;6.22;4.95;;;;;;;3.79;86.94;96665.55;1712114;81;21072;-83
2021/12/19 06:03:31;;;;;;;6.40;4.83;;;;;;;3.79;86.54;96662.50;1705919;82;21027;-84
2021/12/19 06:05:56;;;;;;;5.97;4.55;;;;;;;3.81;86.81;96662.37;1714857;82;21013;-84
2021/12/19 06:08:22;;;;;;;5.60;4.85;;;;;;;3.84;86.85;96665.95;1720510;82;21009;-84
2021/12/19 06:10:48;;;;;;;6.17;4.72;;;;;;;3.88;86.91;96664.26;1698411;82;21000;-84
2021/12/19 06:13:14;;;;;;;5.05;4.55;;;;;;;3.91;86.73;96678.16;1692161;83;21461;-84
2021/12/19 06:15:39;;;;;;;5.67;4.55;;;;;;;3.91;86.63;96674.30;1677879;83;21425;-84
2021/12/19 06:18:05;;;;;;;5.12;4.25;;;;;;;3.94;86.77;96671.12;1703770;83;21026;-84
2021/12/19 06:20:34;;;;;;;7.55;5.90;;;;;;;3.94;86.53;96669.84;1699830;83;21051;-83
2021/12/19 06:23:00;;;;;;;6.05;5.12;;;;;;;3.94;86.36;96668.08;1693902;82;22265;-84
2021/12/19 06:25:26;;;;;;;4.83;4.28;;;;;;;3.96;86.18;96671.32;1702885;81;21068;-84
2021/12/19 06:27:52;;;;;;;6.03;4.37;;;;;;;3.95;85.78;96672.27;1696228;83;21044;-84
2021/12/19 06:30:18;;;;;;;5.25;4.55;;;;;;;3.96;85.89;96690.60;1706390;83;21047;-84
2021/12/19 06:32:44;;;;;;;5.25;4.72;;;;;;;3.99;86.18;96695.95;1711609;82;21460;-84
2021/12/19 06:35:17;;;;;;;5.17;4.67;;;;;;;4.00;86.12;96691.95;1699986;81;21084;-84
2021/12/19 06:37:39;;;;;;;5.42;4.30;;;;;;;4.00;85.88;96677.81;1670409;84;21011;-84
2021/12/19 06:40:07;;;;;;;5.80;5.20;;;;;;;3.99;85.78;96689.05;1715228;82;21525;-83
2021/12/19 06:42:33;;;;;;;5.55;4.03;;;;;;;3.98;85.75;96687.42;1726769;81;21035;-84
2021/12/19 06:44:58;;;;;;;5.95;4.30;;;;;;;3.99;85.69;96674.09;1722666;82;21065;-84
2021/12/19 06:47:24;;;;;;;5.70;4.33;;;;;;;4.01;85.73;96680.72;1703450;83;21379;-84
2021/12/19 06:49:50;;;;;;;5.53;4.22;;;;;;;4.03;85.56;96674.97;1716550;81;21585;-84
2021/12/19 06:52:17;;;;;;;5.17;4.08;;;;;;;4.02;85.43;96686.67;1708995;82;21032;-84
2021/12/19 06:54:43;;;;;;;4.75;3.98;;;;;;;4.01;85.10;96694.05;1700624;81;21412;-84
2021/12/19 06:57:09;;;;;;;5.28;4.30;;;;;;;3.98;85.38;96674.56;1710860;82;21043;-84
2021/12/19 06:59:36;;;;;;;5.30;4.80;;;;;;;3.97;85.32;96669.09;1691912;83;21055;-84
2021/12/19 07:02:02;;;;;;;4.28;3.85;;;;;;;3.97;85.52;96679.38;1709649;81;21023;-84
2021/12/19 07:04:28;;;;;;;5.40;4.90;;;;;;;3.96;85.21;96670.03;1708523;82;21029;-84
2021/12/19 07:06:54;;;;;;;5.10;4.60;;;;;;;3.95;85.36;96667.60;1706607;83;21127;-84
2021/12/19 07:09:20;;;;;;;5.22;4.72;;;;;;;3.95;85.44;96661.98;1707156;82;21390;-83
2021/12/19 07:11:46;;;;;;;6.85;4.28;;;;;;;3.97;85.48;96656.70;1705486;81;21400;-84
2021/12/19 07:14:13;;;;;;;5.55;4.53;;;;;;;3.98;85.28;96650.62;1701417;81;21101;-84
2021/12/19 07:16:39;;;;;;;6.42;5.30;;;;;;;3.99;85.52;96654.34;1710203;81;21695;-84
2021/12/19 07:19:05;;;;;;;5.30;4.80;;;;;;;4.02;85.66;96654.53;1707806;83;21068;-84
2021/12/19 07:21:31;;;;;;;5.70;4.72;;;;;;;4.01;85.51;96642.16;1698743;82;21522;-84
2021/12/19 07:23:57;;;;;;;5.58;4.65;;;;;;;3.97;85.51;96640.80;1706383;81;21006;-84
2021/12/19 07:26:23;;;;;;;6.22;5.30;;;;;;;3.97;85.59;96639.99;1692914;82;21013;-83
2021/12/19 07:28:50;;;;;;;5.58;5.00;;;;;;;3.98;85.59;96636.00;1705103;82;21030;-84
2021/12/19 07:31:19;;;;;;;4.85;4.28;;;;;;;3.98;85.44;96627.48;1716264;81;21060;-84
2021/12/19 07:33:45;;;;;;;5.12;4.62;;;;;;;3.98;85.41;96632.63;1709219;81;21309;-84
2021/12/19 07:36:13;;;;;;;8.50;6.58;;;;;;;3.97;85.49;96626.66;1714198;81;21386;-84
2021/12/19 07:38:51;;;;;;;7.70;5.72;;;;;;;3.95;85.94;96616.19;1694026;83;21007;-84
2021/12/19 07:41:06;;;;;;;8.70;6.92;;;;;;;3.92;85.95;96604.41;1675992;83;21106;-84
2021/12/19 07:43:32;;;;;;;6.95;6.10;;;;;;;3.92;86.13;96596.70;1675433;83;21064;-84
2021/12/19 07:45:58;;;;;;;8.25;6.33;;;;;;;3.93;86.17;96600.09;1690684;83;21104;-84
2021/12/19 07:48:23;;;;;;;6.97;6.28;;;;;;;3.95;86.23;96611.04;1690054;83;21087;-84
2021/12/19 07:50:49;;;;;;;6.30;5.70;;;;;;;3.96;86.22;96618.61;1682811;83;21015;-84
2021/12/19 07:53:15;;;;;;;6.17;5.55;;;;;;;3.98;86.24;96614.15;1659258;83;20997;-84
2021/12/19 07:55:41;;;;;;;6.62;6.03;;;;;;;3.98;86.02;96606.91;1684868;84;21052;-84
2021/12/19 07:58:07;;;;;;;8.93;7.08;;;;;;;3.98;86.26;96608.19;1687155;84;21044;-84
2021/12/19 08:00:33;;;;;;;10.38;6.90;;;;;;;3.97;86.47;96615.09;1662885;85;21010;-84
2021/12/19 08:02:58;;;;;;;7.83;6.30;;;;;;;3.96;86.47;96607.05;1685829;82;21076;-84
2021/12/19 08:05:24;;;;;;;6.85;5.87;;;;;;;3.99;86.59;96600.81;1686349;84;21095;-84
2021/12/19 08:07:56;;;;;;;6.78;6.10;;;;;;;4.01;86.41;96599.73;1697144;83;21085;-84
2021/12/19 08:12:46;;;;;;;7.95;7.17;;;;;;;4.03;86.56;96611.16;1699193;82;21076;-84
2021/12/19 08:15:15;;;;;;;8.38;7.45;;;;;;;4.01;86.80;96620.77;1713134;81;21054;-83
2021/12/19 08:17:40;;;;;;;7.37;5.95;;;;;;;4.00;86.96;96618.68;1712097;81;21387;-83
2021/12/19 08:20:11;;;;;;;9.73;6.92;;;;;;;3.99;87.03;96617.53;1708239;83;21031;-83
2021/12/19 08:22:36;;;;;;;8.03;7.17;;;;;;;3.98;87.05;96618.48;1700225;83;20976;-83
2021/12/19 08:25:04;;;;;;;6.95;6.25;;;;;;;3.99;87.28;96607.25;1693092;83;21011;-83
2021/12/19 08:27:30;;;;;;;8.58;6.75;;;;;;;3.98;87.57;96634.72;1714576;83;21045;-83
2021/12/19 08:29:55;;;;;;;10.43;7.85;;;;;;;3.96;87.71;96622.47;1708669;82;21040;-83
2021/12/19 08:32:22;;;;;;;8.65;7.20;;;;;;;3.93;87.91;96624.03;1706039;82;21070;-83
2021/12/19 08:34:49;;;;;;;9.08;7.65;;;;;;;3.93;88.20;96626.61;1696480;83;21387;-83
2021/12/19 08:37:15;;;;;;;8.00;7.17;;;;;;;3.93;88.29;96634.79;1703837;82;21024;-83
2021/12/19 08:39:44;;;;;;;9.73;8.18;;;;;;;3.91;88.30;96631.88;1707844;83;21430;-83
2021/12/19 08:42:10;;;;;;;11.28;8.43;;;;;;;3.94;88.61;96634.66;1709291;81;21047;-82
2021/12/19 08:44:36;;;;;;;12.58;8.45;;;;;;;3.93;88.56;96623.22;1721542;81;20975;-83
2021/12/19 08:47:03;;;;;;;13.93;10.25;;;;;;;3.93;88.98;96638.65;1713009;81;21008;-84
2021/12/19 08:49:29;;;;;;;15.08;9.85;;;;;;;3.89;89.21;96624.75;1704909;81;20956;-84
2021/12/19 08:51:55;;;;;;;11.40;9.00;;;;;;;3.89;89.39;96625.22;1699959;83;20998;-83
2021/12/19 08:54:22;;;;;;;10.63;8.98;;;;;;;3.88;89.55;96613.32;1703151;83;20999;-84
2021/12/19 08:56:52;;;;;;;12.10;8.93;;;;;;;3.90;89.51;96619.13;1696162;83;21026;-83
2021/12/19 08:59:18;;;;;;;13.15;10.38;;;;;;;3.91;89.77;96608.75;1705128;82;21055;-83
2021/12/19 09:01:44;;;;;;;12.43;10.13;;;;;;;3.95;89.86;96613.61;1703814;82;21049;-83
2021/12/19 09:04:12;;;;;;;12.65;10.45;;;;;;;3.96;89.77;96611.38;1690347;82;21129;-84
2021/12/19 09:06:38;;;;;;;11.05;9.60;;;;;;;3.94;89.93;96609.42;1668908;84;21553;-84
2021/12/19 09:09:04;;;;;;;14.83;10.72;;;;;;;3.90;89.96;96601.14;1704076;83;21155;-83
2021/12/19 09:11:30;;;;;;;15.43;10.50;;;;;;;3.91;90.20;96598.94;1700078;83;21042;-84
2021/12/19 09:13:56;;;;;;;13.48;10.65;;;;;;;3.91;90.18;96600.22;1699083;81;21098;-84
2021/12/19 09:16:22;;;;;;;11.30;9.60;;;;;;;3.93;90.39;96599.61;1710652;81;21040;-83
2021/12/19 09:18:48;;;;;;;13.78;9.98;;;;;;;3.96;90.37;96602.37;1726255;81;21039;-83
2021/12/19 09:21:14;;;;;;;15.13;10.72;;;;;;;4.00;90.47;96601.97;1685155;83;21003;-84
2021/12/19 09:23:40;;;;;;;13.78;10.60;;;;;;;3.99;90.43;96599.05;1718262;81;21367;-84
2021/12/19 09:26:06;;;;;;;10.48;8.75;;;;;;;3.98;90.40;96606.44;1692888;83;21399;-84
2021/12/19 09:28:32;;;;;;;13.80;10.38;;;;;;;3.93;90.92;96597.52;1695356;83;21477;-84
2021/12/19 09:30:58;;;;;;;11.70;7.47;;;;;;;3.91;90.91;96601.51;1711717;83;21109;-83
2021/12/19 09:33:23;;;;;;;13.38;9.65;;;;;;;3.89;91.11;96604.66;1703753;83;21163;-84
2021/12/19 09:35:49;;;;;;;13.13;9.88;;;;;;;3.85;90.69;96606.69;1706825;83;21061;-84
2021/12/19 09:38:15;;;;;;;14.85;11.50;;;;;;;3.88;90.90;96606.89;1708038;83;21031;-84
2021/12/19 09:40:43;;;;;;;14.07;10.38;;;;;;;3.87;91.10;96598.84;1708863;81;21016;-84
2021/12/19 09:45:59;;;;;;;14.83;12.55;;;;;;;3.89;90.98;96593.90;1700505;83;21043;-83
2021/12/19 09:48:26;;;;;;;19.80;15.15;;;;;;;3.87;91.09;96585.98;1704306;83;21016;-84
2021/12/19 09:50:54;;;;;;;15.95;13.00;;;;;;;3.83;91.32;96584.17;1711189;83;21375;-83
2021/12/19 09:53:20;;;;;;;14.30;11.30;;;;;;;3.82;91.06;96570.17;1696159;83;20962;-83
2021/12/19 09:55:46;;;;;;;15.85;11.30;;;;;;;3.83;91.20;96555.08;1709903;83;21377;-84
2021/12/19 09:58:12;;;;;;;15.53;11.05;;;;;;;3.84;91.44;96551.09;1708329;83;21737;-84
2021/12/19 10:00:37;;;;;;;14.95;11.85;;;;;;;3.87;91.38;96547.43;1682590;83;21048;-84
2021/12/19 10:03:03;;;;;;;16.05;12.05;;;;;;;3.87;91.24;96541.00;1712566;83;21116;-84
2021/12/19 10:05:29;;;;;;;22.87;14.03;;;;;;;3.91;91.38;96537.23;1700663;82;21433;-84
2021/12/19 10:08:01;;;;;;;245.97;103.60;;;;;;;3.95;91.41;96537.30;1707644;83;21497;-83
2021/12/19 10:10:55;;;;;;;;;;;;;;;3.98;91.35;96534.92;1696032;83;21029;-83
2021/12/19 10:13:12;;;;;;;53.73;27.48;;;;;;;3.99;91.35;96531.40;1705703;83;20144;-84
2021/12/19 10:15:41;;;;;;;20.62;12.47;;;;;;;3.98;91.54;96525.45;1698930;82;21019;-84
2021/12/19 10:18:11;;;;;;;14.68;11.53;;;;;;;3.94;91.57;96522.02;1696222;82;21102;-84
2021/12/19 10:20:48;;;;;;;14.73;11.08;;;;;;;3.95;91.66;96527.02;1694521;81;21084;-83
2021/12/19 10:23:21;;;;;;;40.45;20.70;;;;;;;3.92;91.81;96520.86;1709405;82;21050;-84
2021/12/19 10:26:04;;;;;;;20.97;13.93;;;;;;;3.91;91.92;96514.10;1702756;82;21407;-85
2021/12/19 10:28:30;;;;;;;14.33;12.80;;;;;;;3.88;91.84;96516.92;1709851;81;21112;-86
2021/12/19 10:31:01;;;;;;;13.53;10.88;;;;;;;3.90;91.88;96513.29;1706382;83;21066;-86
2021/12/19 10:33:32;;;;;;;14.47;11.08;;;;;;;3.93;91.91;96504.48;1698329;83;21120;-86
2021/12/19 10:36:04;;;;;;;28.32;16.73;;;;;;;3.91;91.78;96503.82;1719731;81;21076;-85
2021/12/19 10:38:35;;;;;;;29.60;20.90;;;;;;;3.89;91.86;96496.22;1703082;81;21054;-85
2021/12/19 10:41:10;;;;;;;16.10;12.35;;;;;;;3.87;91.95;96497.30;1698200;81;21027;-85
2021/12/19 10:43:59;;;;;;;14.63;11.20;;;;;;;3.86;92.27;96493.92;1709930;82;21083;-85
2021/12/19 10:46:31;;;;;;;20.25;11.97;;;;;;;3.87;91.98;96490.88;1722210;82;21495;-85
2021/12/19 10:48:58;;;;;;;14.07;10.60;;;;;;;3.84;91.92;96475.73;1702520;82;21119;-83
2021/12/19 10:51:25;;;;;;;14.78;10.65;;;;;;;3.83;92.00;96476.69;1694050;83;21105;-84
2021/12/19 10:53:53;;;;;;;13.68;10.30;;;;;;;3.82;92.04;96477.16;1690868;82;21029;-82
2021/12/19 10:56:23;;;;;;;14.47;11.03;;;;;;;3.82;92.10;96466.88;1710259;82;21097;-83
2021/12/19 10:58:54;;;;;;;16.70;12.53;;;;;;;3.85;92.12;96468.36;1707042;82;21059;-81
2021/12/19 11:01:26;;;;;;;15.58;11.20;;;;;;;3.88;92.26;96457.80;1711230;83;21015;-81
2021/12/19 11:04:06;;;;;;;15.93;11.90;;;;;;;3.88;92.00;96460.37;1689489;81;21093;-82
2021/12/19 11:06:50;;;;;;;20.65;12.25;;;;;;;3.89;92.04;96441.42;1696890;83;21114;-81
2021/12/19 11:09:33;;;;;;;27.35;14.30;;;;;;;3.89;92.05;96434.52;1714537;82;21012;-81
2021/12/19 11:12:02;;;;;;;46.90;19.90;;;;;;;3.89;92.25;96442.23;1704175;83;21100;-81
2021/12/19 11:14:37;;;;;;;126.90;57.78;;;;;;;3.86;92.13;96427.57;1717475;83;21018;-81
2021/12/19 11:17:15;;;;;;;19.00;13.18;;;;;;;3.85;92.16;96423.38;1720808;82;21050;-82
2021/12/19 11:19:38;;;;;;;;;;;;;;;3.83;91.98;96427.85;1705127;82;21891;-82
2021/12/19 11:22:08;;;;;;;20.05;13.50;;;;;;;3.82;92.16;96417.23;1714133;81;20438;-82
2021/12/19 11:24:47;;;;;;;;;;;;;;;;;;;;;
2021/12/19 11:27:13;;;;;;;26.37;13.18;;;;;;;3.83;92.29;96413.24;1714771;82;21009;-83
2021/12/19 11:29:40;;;;;;;30.57;14.53;;;;;;;3.86;92.21;96405.24;1704458;83;21090;-82
2021/12/19 11:32:18;;;;;;;21.95;12.25;;;;;;;3.89;92.14;96403.67;1695001;82;21115;-83
2021/12/19 11:36:01;;;;;;;;;;;;;;;;;;;;;
2021/12/19 11:38:06;;;;;;;36.45;20.27;;;;;;;3.93;92.37;96408.09;1612695;83;21145;-83
2021/12/19 11:50:21;;;;;;;;;;;;;;;;;;;;;
2021/12/19 12:33:05;;;;;;;17.37;12.13;;;;;;;3.92;92.55;96302.36;1316685;108;21230;-85
2021/12/19 12:43:48;;;;;;;;;;;;;;;;;;;;;
2021/12/19 12:46:51;;;;;;;9.30;7.05;;;;;;;3.85;92.58;96302.57;1329997;105;21219;-85
2021/12/19 12:49:53;;;;;;;;;;;;;;;;;;;;;
2021/12/19 13:04:34;;;;;;;47.00;19.12;;;;;;;3.88;92.87;96287.67;1242654;112;21253;-86
2021/12/19 13:08:02;;;;;;;16.17;10.00;;;;;;;3.88;92.97;96272.72;1224679;114;21247;-85
2021/12/19 13:11:07;;;;;;;14.83;10.63;;;;;;;3.89;93.02;96276.44;1180303;116;21757;-84
2021/12/19 13:14:17;;;;;;;;;;;;;;;;;;;;;
2021/12/19 13:16:25;;;;;;;13.05;8.90;;;;;;;3.85;93.26;96271.73;1244235;111;21343;-85
2021/12/19 13:18:53;;;;;;;13.08;9.53;;;;;;;3.84;93.30;96277.34;1401211;99;21241;-85
2021/12/19 13:21:18;;;;;;;14.43;9.28;;;;;;;3.85;93.35;96280.72;1507994;83;20992;-90
2021/12/19 13:23:44;;;;;;;15.88;11.55;;;;;;;3.75;93.29;96256.84;1703704;83;21090;-86
2021/12/19 13:26:10;;;;;;;14.65;10.70;;;;;;;3.87;93.37;96284.77;1711498;82;21053;-85
2021/12/19 13:28:36;;;;;;;50.83;20.37;;;;;;;3.87;93.42;96283.48;1706782;82;21378;-83
2021/12/19 13:31:02;;;;;;;13.10;9.20;;;;;;;3.84;93.43;96264.97;1710906;82;20992;-85
2021/12/19 13:33:30;;;;;;;10.95;8.28;;;;;;;3.81;93.45;96281.97;1701583;82;21305;-83
2021/12/19 13:35:59;;;;;;;9.95;7.58;;;;;;;3.80;93.42;96276.02;1713852;81;21020;-83
2021/12/19 13:38:26;;;;;;;9.55;5.83;;;;;;;3.79;93.19;96273.12;1701609;83;21011;-84
2021/12/19 13:41:02;;;;;;;7.28;6.10;;;;;;;3.78;93.13;96280.50;1690113;83;21115;-84
2021/12/19 13:43:34;;;;;;;6.85;5.25;;;;;;;3.78;93.12;96284.83;1721106;81;21029;-86
2021/12/19 13:46:09;;;;;;;6.15;4.20;;;;;;;3.77;93.16;96278.88;1715244;83;21056;-85
2021/12/19 13:48:38;;;;;;;5.75;4.03;;;;;;;3.74;93.02;96287.33;1697134;81;20990;-85
2021/12/19 13:51:21;;;;;;;5.60;4.08;;;;;;;3.69;92.88;96285.19;1699806;81;21459;-84
2021/12/19 13:53:49;;;;;;;6.33;5.60;;;;;;;3.66;92.62;96275.20;1701082;81;21476;-83